sensor_id;sensor_type;location;lat;lon;timestamp;P1;durP1;ratioP1;P2;durP2;ratioP2
13067;SDS011;6600;51.362;6.686;2024-03-06T00:01:52;19.47;;;12.50;;
13067;SDS011;6600;51.362;6.686;2024-03-06T00:04:17;18.97;;;12.20;;
13067;SDS011;6600;51.362;6.686;2024-03-06T00:06:43;21.57;;;13.03;;
13067;SDS011;6600;51.362;6.686;2024-03-06T00:09:08;18.57;;;12.20;;
13067;SDS011;6600;51.362;6.686;2024-03-06T00:11:34;19.93;;;12.27;;
13067;SDS011;6600;51.362;6.686;2024-03-06T00:14:01;18.83;;;11.97;;
13067;SDS011;6600;51.362;6.686;2024-03-06T00:16:27;19.70;;;11.50;;
13067;SDS011;6600;51.362;6.686;2024-03-06T00:18:52;21.13;;;12.13;;
13067;SDS011;6600;51.362;6.686;2024-03-06T00:21:18;16.70;;;10.67;;
13067;SDS011;6600;51.362;6.686;2024-03-06T00:23:43;20.67;;;12.43;;
13067;SDS011;6600;51.362;6.686;2024-03-06T00:26:11;21.17;;;13.67;;
13067;SDS011;6600;51.362;6.686;2024-03-06T00:28:37;20.47;;;12.93;;
13067;SDS011;6600;51.362;6.686;2024-03-06T00:31:04;19.13;;;12.37;;
13067;SDS011;6600;51.362;6.686;2024-03-06T00:33:30;21.47;;;12.07;;
13067;SDS011;6600;51.362;6.686;2024-03-06T00:35:55;18.23;;;11.63;;
13067;SDS011;6600;51.362;6.686;2024-03-06T00:38:21;17.87;;;11.90;;
13067;SDS011;6600;51.362;6.686;2024-03-06T00:40:46;20.73;;;12.67;;
13067;SDS011;6600;51.362;6.686;2024-03-06T00:43:11;22.03;;;13.43;;
13067;SDS011;6600;51.362;6.686;2024-03-06T00:45:37;20.73;;;12.33;;
13067;SDS011;6600;51.362;6.686;2024-03-06T00:48:02;21.50;;;13.13;;
13067;SDS011;6600;51.362;6.686;2024-03-06T00:50:28;22.93;;;14.50;;
13067;SDS011;6600;51.362;6.686;2024-03-06T00:52:54;20.87;;;13.37;;
13067;SDS011;6600;51.362;6.686;2024-03-06T00:55:19;24.20;;;13.97;;
13067;SDS011;6600;51.362;6.686;2024-03-06T00:57:44;22.90;;;13.93;;
13067;SDS011;6600;51.362;6.686;2024-03-06T01:00:10;19.17;;;11.97;;
13067;SDS011;6600;51.362;6.686;2024-03-06T01:02:36;21.33;;;13.23;;
13067;SDS011;6600;51.362;6.686;2024-03-06T01:05:05;24.43;;;13.50;;
13067;SDS011;6600;51.362;6.686;2024-03-06T01:07:32;21.93;;;13.83;;
13067;SDS011;6600;51.362;6.686;2024-03-06T01:09:58;25.53;;;14.37;;
13067;SDS011;6600;51.362;6.686;2024-03-06T01:12:23;27.73;;;15.93;;
13067;SDS011;6600;51.362;6.686;2024-03-06T01:14:49;24.97;;;14.73;;
13067;SDS011;6600;51.362;6.686;2024-03-06T01:17:14;22.43;;;13.83;;
13067;SDS011;6600;51.362;6.686;2024-03-06T01:19:40;23.87;;;14.57;;
13067;SDS011;6600;51.362;6.686;2024-03-06T01:22:05;20.37;;;13.30;;
13067;SDS011;6600;51.362;6.686;2024-03-06T01:24:30;23.10;;;13.47;;
13067;SDS011;6600;51.362;6.686;2024-03-06T01:26:56;23.63;;;14.03;;
13067;SDS011;6600;51.362;6.686;2024-03-06T01:29:21;21.40;;;13.10;;
13067;SDS011;6600;51.362;6.686;2024-03-06T01:31:46;20.93;;;13.17;;
13067;SDS011;6600;51.362;6.686;2024-03-06T01:34:12;23.13;;;12.97;;
13067;SDS011;6600;51.362;6.686;2024-03-06T01:36:37;23.90;;;14.30;;
13067;SDS011;6600;51.362;6.686;2024-03-06T01:39:02;22.83;;;14.20;;
13067;SDS011;6600;51.362;6.686;2024-03-06T01:41:28;23.47;;;14.67;;
13067;SDS011;6600;51.362;6.686;2024-03-06T01:43:53;26.23;;;14.90;;
13067;SDS011;6600;51.362;6.686;2024-03-06T01:46:18;27.70;;;15.40;;
13067;SDS011;6600;51.362;6.686;2024-03-06T01:48:44;24.30;;;14.00;;
13067;SDS011;6600;51.362;6.686;2024-03-06T01:51:10;24.10;;;15.23;;
13067;SDS011;6600;51.362;6.686;2024-03-06T01:53:35;23.07;;;14.03;;
13067;SDS011;6600;51.362;6.686;2024-03-06T01:56:02;24.40;;;14.43;;
13067;SDS011;6600;51.362;6.686;2024-03-06T01:58:29;21.80;;;13.80;;
13067;SDS011;6600;51.362;6.686;2024-03-06T02:00:55;20.30;;;12.70;;
13067;SDS011;6600;51.362;6.686;2024-03-06T02:03:22;22.90;;;13.80;;
13067;SDS011;6600;51.362;6.686;2024-03-06T02:05:49;23.77;;;13.20;;
13067;SDS011;6600;51.362;6.686;2024-03-06T02:08:15;21.33;;;12.40;;
13067;SDS011;6600;51.362;6.686;2024-03-06T02:10:41;19.80;;;12.27;;
13067;SDS011;6600;51.362;6.686;2024-03-06T02:13:06;20.67;;;12.10;;
13067;SDS011;6600;51.362;6.686;2024-03-06T02:15:31;19.87;;;11.97;;
13067;SDS011;6600;51.362;6.686;2024-03-06T02:17:57;17.43;;;11.57;;
13067;SDS011;6600;51.362;6.686;2024-03-06T02:20:25;22.63;;;12.63;;
13067;SDS011;6600;51.362;6.686;2024-03-06T02:22:51;22.57;;;13.43;;
13067;SDS011;6600;51.362;6.686;2024-03-06T02:25:16;28.67;;;14.60;;
13067;SDS011;6600;51.362;6.686;2024-03-06T02:27:42;25.23;;;15.20;;
13067;SDS011;6600;51.362;6.686;2024-03-06T02:30:08;26.93;;;16.70;;
13067;SDS011;6600;51.362;6.686;2024-03-06T02:32:35;26.03;;;14.60;;
13067;SDS011;6600;51.362;6.686;2024-03-06T02:35:01;27.57;;;15.97;;
13067;SDS011;6600;51.362;6.686;2024-03-06T02:37:28;22.03;;;14.13;;
13067;SDS011;6600;51.362;6.686;2024-03-06T02:39:53;22.93;;;14.07;;
13067;SDS011;6600;51.362;6.686;2024-03-06T02:42:19;28.67;;;14.40;;
13067;SDS011;6600;51.362;6.686;2024-03-06T02:44:44;21.37;;;14.03;;
13067;SDS011;6600;51.362;6.686;2024-03-06T02:47:09;23.33;;;14.13;;
13067;SDS011;6600;51.362;6.686;2024-03-06T02:49:35;25.97;;;14.63;;
13067;SDS011;6600;51.362;6.686;2024-03-06T02:52:00;24.67;;;14.80;;
13067;SDS011;6600;51.362;6.686;2024-03-06T02:54:26;25.87;;;14.57;;
13067;SDS011;6600;51.362;6.686;2024-03-06T02:56:52;23.73;;;14.40;;
13067;SDS011;6600;51.362;6.686;2024-03-06T02:59:17;28.20;;;15.57;;
13067;SDS011;6600;51.362;6.686;2024-03-06T03:01:43;29.77;;;16.27;;
13067;SDS011;6600;51.362;6.686;2024-03-06T03:04:09;31.90;;;17.40;;
13067;SDS011;6600;51.362;6.686;2024-03-06T03:06:35;32.10;;;17.13;;
13067;SDS011;6600;51.362;6.686;2024-03-06T03:09:00;26.67;;;15.37;;
13067;SDS011;6600;51.362;6.686;2024-03-06T03:11:26;29.93;;;17.27;;
13067;SDS011;6600;51.362;6.686;2024-03-06T03:13:52;31.43;;;16.10;;
13067;SDS011;6600;51.362;6.686;2024-03-06T03:16:17;32.67;;;17.73;;
13067;SDS011;6600;51.362;6.686;2024-03-06T03:18:44;31.37;;;17.80;;
13067;SDS011;6600;51.362;6.686;2024-03-06T03:21:10;31.63;;;17.30;;
13067;SDS011;6600;51.362;6.686;2024-03-06T03:23:37;33.03;;;18.67;;
13067;SDS011;6600;51.362;6.686;2024-03-06T03:26:02;27.40;;;16.27;;
13067;SDS011;6600;51.362;6.686;2024-03-06T03:28:29;28.37;;;15.83;;
13067;SDS011;6600;51.362;6.686;2024-03-06T03:30:54;25.43;;;15.47;;
13067;SDS011;6600;51.362;6.686;2024-03-06T03:33:21;33.77;;;18.03;;
13067;SDS011;6600;51.362;6.686;2024-03-06T03:35:47;31.27;;;17.03;;
13067;SDS011;6600;51.362;6.686;2024-03-06T03:38:13;33.77;;;17.67;;
13067;SDS011;6600;51.362;6.686;2024-03-06T03:40:38;33.10;;;18.63;;
13067;SDS011;6600;51.362;6.686;2024-03-06T03:43:03;32.40;;;17.07;;
13067;SDS011;6600;51.362;6.686;2024-03-06T03:45:31;31.63;;;18.10;;
13067;SDS011;6600;51.362;6.686;2024-03-06T03:47:58;34.63;;;19.50;;
13067;SDS011;6600;51.362;6.686;2024-03-06T03:50:24;31.10;;;17.50;;
13067;SDS011;6600;51.362;6.686;2024-03-06T03:52:50;35.40;;;18.70;;
13067;SDS011;6600;51.362;6.686;2024-03-06T03:55:15;30.83;;;18.00;;
13067;SDS011;6600;51.362;6.686;2024-03-06T03:57:40;33.03;;;18.13;;
13067;SDS011;6600;51.362;6.686;2024-03-06T04:00:06;34.77;;;18.27;;
13067;SDS011;6600;51.362;6.686;2024-03-06T04:02:36;31.20;;;18.00;;
13067;SDS011;6600;51.362;6.686;2024-03-06T04:05:02;30.83;;;18.10;;
13067;SDS011;6600;51.362;6.686;2024-03-06T04:07:27;36.40;;;18.23;;
13067;SDS011;6600;51.362;6.686;2024-03-06T04:09:52;36.53;;;19.07;;
13067;SDS011;6600;51.362;6.686;2024-03-06T04:12:18;38.47;;;19.47;;
13067;SDS011;6600;51.362;6.686;2024-03-06T04:14:43;34.67;;;19.07;;
13067;SDS011;6600;51.362;6.686;2024-03-06T04:17:09;37.17;;;19.37;;
13067;SDS011;6600;51.362;6.686;2024-03-06T04:19:34;39.87;;;20.23;;
13067;SDS011;6600;51.362;6.686;2024-03-06T04:21:59;42.43;;;19.87;;
13067;SDS011;6600;51.362;6.686;2024-03-06T04:24:24;40.57;;;19.67;;
13067;SDS011;6600;51.362;6.686;2024-03-06T04:26:50;39.40;;;19.47;;
13067;SDS011;6600;51.362;6.686;2024-03-06T04:29:15;34.63;;;19.30;;
13067;SDS011;6600;51.362;6.686;2024-03-06T04:31:40;33.17;;;18.47;;
13067;SDS011;6600;51.362;6.686;2024-03-06T04:34:06;38.33;;;19.00;;
13067;SDS011;6600;51.362;6.686;2024-03-06T04:36:31;36.77;;;18.10;;
13067;SDS011;6600;51.362;6.686;2024-03-06T04:38:56;34.47;;;19.70;;
13067;SDS011;6600;51.362;6.686;2024-03-06T04:41:22;37.37;;;19.03;;
13067;SDS011;6600;51.362;6.686;2024-03-06T04:43:48;42.00;;;20.27;;
13067;SDS011;6600;51.362;6.686;2024-03-06T04:46:15;35.40;;;19.17;;
13067;SDS011;6600;51.362;6.686;2024-03-06T04:48:41;35.43;;;18.83;;
13067;SDS011;6600;51.362;6.686;2024-03-06T04:51:06;36.67;;;18.83;;
13067;SDS011;6600;51.362;6.686;2024-03-06T04:53:31;38.87;;;19.63;;
13067;SDS011;6600;51.362;6.686;2024-03-06T04:55:56;36.37;;;19.60;;
13067;SDS011;6600;51.362;6.686;2024-03-06T04:58:22;32.17;;;18.00;;
13067;SDS011;6600;51.362;6.686;2024-03-06T05:00:47;34.47;;;18.40;;
13067;SDS011;6600;51.362;6.686;2024-03-06T05:03:12;35.97;;;18.73;;
13067;SDS011;6600;51.362;6.686;2024-03-06T05:05:38;34.13;;;18.17;;
13067;SDS011;6600;51.362;6.686;2024-03-06T05:08:05;30.43;;;16.83;;
13067;SDS011;6600;51.362;6.686;2024-03-06T05:10:32;28.77;;;16.10;;
13067;SDS011;6600;51.362;6.686;2024-03-06T05:12:57;30.40;;;16.70;;
13067;SDS011;6600;51.362;6.686;2024-03-06T05:15:22;26.90;;;15.30;;
13067;SDS011;6600;51.362;6.686;2024-03-06T05:17:48;29.93;;;15.97;;
13067;SDS011;6600;51.362;6.686;2024-03-06T05:20:13;30.47;;;15.63;;
13067;SDS011;6600;51.362;6.686;2024-03-06T05:22:39;30.30;;;16.43;;
13067;SDS011;6600;51.362;6.686;2024-03-06T05:25:04;28.57;;;16.37;;
13067;SDS011;6600;51.362;6.686;2024-03-06T05:27:30;31.87;;;17.03;;
13067;SDS011;6600;51.362;6.686;2024-03-06T05:29:57;31.27;;;18.10;;
13067;SDS011;6600;51.362;6.686;2024-03-06T05:32:22;35.57;;;18.93;;
13067;SDS011;6600;51.362;6.686;2024-03-06T05:34:47;36.50;;;18.50;;
13067;SDS011;6600;51.362;6.686;2024-03-06T05:37:13;34.00;;;17.33;;
13067;SDS011;6600;51.362;6.686;2024-03-06T05:39:38;30.70;;;17.50;;
13067;SDS011;6600;51.362;6.686;2024-03-06T05:42:04;30.43;;;17.50;;
13067;SDS011;6600;51.362;6.686;2024-03-06T05:44:30;33.87;;;17.37;;
13067;SDS011;6600;51.362;6.686;2024-03-06T05:46:57;31.10;;;17.13;;
13067;SDS011;6600;51.362;6.686;2024-03-06T05:49:23;30.73;;;16.57;;
13067;SDS011;6600;51.362;6.686;2024-03-06T05:51:48;32.40;;;16.73;;
13067;SDS011;6600;51.362;6.686;2024-03-06T05:54:14;27.87;;;14.97;;
13067;SDS011;6600;51.362;6.686;2024-03-06T05:56:39;31.33;;;15.93;;
13067;SDS011;6600;51.362;6.686;2024-03-06T05:59:07;27.33;;;15.67;;
13067;SDS011;6600;51.362;6.686;2024-03-06T06:01:33;29.37;;;15.67;;
13067;SDS011;6600;51.362;6.686;2024-03-06T06:04:01;27.87;;;16.20;;
13067;SDS011;6600;51.362;6.686;2024-03-06T06:06:27;28.20;;;15.87;;
13067;SDS011;6600;51.362;6.686;2024-03-06T06:08:52;25.57;;;14.53;;
13067;SDS011;6600;51.362;6.686;2024-03-06T06:11:18;29.07;;;16.40;;
13067;SDS011;6600;51.362;6.686;2024-03-06T06:13:44;29.63;;;16.27;;
13067;SDS011;6600;51.362;6.686;2024-03-06T06:16:09;28.70;;;16.63;;
13067;SDS011;6600;51.362;6.686;2024-03-06T06:18:34;22.60;;;14.63;;
13067;SDS011;6600;51.362;6.686;2024-03-06T06:21:00;29.80;;;15.43;;
13067;SDS011;6600;51.362;6.686;2024-03-06T06:23:26;27.87;;;15.27;;
13067;SDS011;6600;51.362;6.686;2024-03-06T06:25:51;26.03;;;14.90;;
13067;SDS011;6600;51.362;6.686;2024-03-06T06:28:17;25.67;;;14.60;;
13067;SDS011;6600;51.362;6.686;2024-03-06T06:30:42;30.53;;;15.47;;
13067;SDS011;6600;51.362;6.686;2024-03-06T06:33:07;28.40;;;15.33;;
13067;SDS011;6600;51.362;6.686;2024-03-06T06:35:33;30.93;;;16.17;;
13067;SDS011;6600;51.362;6.686;2024-03-06T06:38:00;31.13;;;15.67;;
13067;SDS011;6600;51.362;6.686;2024-03-06T06:40:25;28.23;;;15.40;;
13067;SDS011;6600;51.362;6.686;2024-03-06T06:42:52;26.37;;;15.73;;
13067;SDS011;6600;51.362;6.686;2024-03-06T06:45:18;27.10;;;15.43;;
13067;SDS011;6600;51.362;6.686;2024-03-06T06:47:44;27.13;;;14.70;;
13067;SDS011;6600;51.362;6.686;2024-03-06T06:50:10;26.30;;;14.37;;
13067;SDS011;6600;51.362;6.686;2024-03-06T06:52:37;29.57;;;16.57;;
13067;SDS011;6600;51.362;6.686;2024-03-06T06:55:02;31.43;;;17.93;;
13067;SDS011;6600;51.362;6.686;2024-03-06T06:57:29;31.07;;;16.97;;
13067;SDS011;6600;51.362;6.686;2024-03-06T06:59:54;29.80;;;17.07;;
13067;SDS011;6600;51.362;6.686;2024-03-06T07:02:19;28.73;;;16.13;;
13067;SDS011;6600;51.362;6.686;2024-03-06T07:04:45;27.07;;;16.50;;
13067;SDS011;6600;51.362;6.686;2024-03-06T07:07:10;31.00;;;16.83;;
13067;SDS011;6600;51.362;6.686;2024-03-06T07:09:35;25.53;;;15.47;;
13067;SDS011;6600;51.362;6.686;2024-03-06T07:12:01;27.53;;;16.57;;
13067;SDS011;6600;51.362;6.686;2024-03-06T07:14:27;32.10;;;17.53;;
13067;SDS011;6600;51.362;6.686;2024-03-06T07:16:53;27.40;;;15.97;;
13067;SDS011;6600;51.362;6.686;2024-03-06T07:19:19;30.13;;;16.53;;
13067;SDS011;6600;51.362;6.686;2024-03-06T07:21:44;32.23;;;16.30;;
13067;SDS011;6600;51.362;6.686;2024-03-06T07:24:10;33.93;;;17.07;;
13067;SDS011;6600;51.362;6.686;2024-03-06T07:26:35;29.27;;;15.90;;
13067;SDS011;6600;51.362;6.686;2024-03-06T07:29:01;29.87;;;15.43;;
13067;SDS011;6600;51.362;6.686;2024-03-06T07:31:26;31.83;;;15.83;;
13067;SDS011;6600;51.362;6.686;2024-03-06T07:33:52;27.83;;;15.43;;
13067;SDS011;6600;51.362;6.686;2024-03-06T07:36:17;22.53;;;14.97;;
13067;SDS011;6600;51.362;6.686;2024-03-06T07:38:42;27.80;;;16.10;;
13067;SDS011;6600;51.362;6.686;2024-03-06T07:41:08;25.10;;;15.37;;
13067;SDS011;6600;51.362;6.686;2024-03-06T07:43:33;25.63;;;14.60;;
13067;SDS011;6600;51.362;6.686;2024-03-06T07:45:59;25.00;;;15.43;;
13067;SDS011;6600;51.362;6.686;2024-03-06T07:48:24;27.17;;;15.83;;
13067;SDS011;6600;51.362;6.686;2024-03-06T07:50:49;26.07;;;16.07;;
13067;SDS011;6600;51.362;6.686;2024-03-06T07:53:15;26.57;;;15.37;;
13067;SDS011;6600;51.362;6.686;2024-03-06T07:55:41;26.23;;;15.63;;
13067;SDS011;6600;51.362;6.686;2024-03-06T07:58:06;29.33;;;16.30;;
13067;SDS011;6600;51.362;6.686;2024-03-06T08:00:33;25.50;;;16.03;;
13067;SDS011;6600;51.362;6.686;2024-03-06T08:02:59;30.20;;;16.83;;
13067;SDS011;6600;51.362;6.686;2024-03-06T08:05:25;29.07;;;16.37;;
13067;SDS011;6600;51.362;6.686;2024-03-06T08:07:51;32.67;;;17.93;;
13067;SDS011;6600;51.362;6.686;2024-03-06T08:10:16;31.97;;;18.20;;
13067;SDS011;6600;51.362;6.686;2024-03-06T08:12:43;41.70;;;19.67;;
13067;SDS011;6600;51.362;6.686;2024-03-06T08:15:10;32.60;;;18.90;;
13067;SDS011;6600;51.362;6.686;2024-03-06T08:17:36;36.57;;;20.43;;
13067;SDS011;6600;51.362;6.686;2024-03-06T08:20:03;35.27;;;19.43;;
13067;SDS011;6600;51.362;6.686;2024-03-06T08:22:32;37.80;;;20.60;;
13067;SDS011;6600;51.362;6.686;2024-03-06T08:25:03;40.53;;;21.73;;
13067;SDS011;6600;51.362;6.686;2024-03-06T08:27:30;35.13;;;20.80;;
13067;SDS011;6600;51.362;6.686;2024-03-06T08:29:56;33.57;;;19.10;;
13067;SDS011;6600;51.362;6.686;2024-03-06T08:32:21;33.30;;;20.03;;
13067;SDS011;6600;51.362;6.686;2024-03-06T08:34:46;35.60;;;20.27;;
13067;SDS011;6600;51.362;6.686;2024-03-06T08:37:11;36.17;;;20.93;;
13067;SDS011;6600;51.362;6.686;2024-03-06T08:39:38;37.10;;;21.27;;
13067;SDS011;6600;51.362;6.686;2024-03-06T08:42:04;38.27;;;21.53;;
13067;SDS011;6600;51.362;6.686;2024-03-06T08:44:30;37.47;;;21.87;;
13067;SDS011;6600;51.362;6.686;2024-03-06T08:46:55;37.87;;;21.70;;
13067;SDS011;6600;51.362;6.686;2024-03-06T08:49:20;38.97;;;22.27;;
13067;SDS011;6600;51.362;6.686;2024-03-06T08:51:46;40.40;;;22.77;;
13067;SDS011;6600;51.362;6.686;2024-03-06T08:54:11;34.47;;;21.47;;
13067;SDS011;6600;51.362;6.686;2024-03-06T08:56:36;35.87;;;21.30;;
13067;SDS011;6600;51.362;6.686;2024-03-06T08:59:02;38.60;;;21.73;;
13067;SDS011;6600;51.362;6.686;2024-03-06T09:01:27;36.57;;;22.37;;
13067;SDS011;6600;51.362;6.686;2024-03-06T09:03:53;38.17;;;22.47;;
13067;SDS011;6600;51.362;6.686;2024-03-06T09:06:18;40.93;;;23.00;;
13067;SDS011;6600;51.362;6.686;2024-03-06T09:08:43;40.20;;;21.03;;
13067;SDS011;6600;51.362;6.686;2024-03-06T09:11:08;37.27;;;21.53;;
13067;SDS011;6600;51.362;6.686;2024-03-06T09:13:34;41.50;;;22.87;;
13067;SDS011;6600;51.362;6.686;2024-03-06T09:15:59;38.40;;;23.27;;
13067;SDS011;6600;51.362;6.686;2024-03-06T09:18:24;41.37;;;24.03;;
13067;SDS011;6600;51.362;6.686;2024-03-06T09:20:50;41.27;;;23.17;;
13067;SDS011;6600;51.362;6.686;2024-03-06T09:23:15;39.97;;;22.57;;
13067;SDS011;6600;51.362;6.686;2024-03-06T09:25:41;39.53;;;21.87;;
13067;SDS011;6600;51.362;6.686;2024-03-06T09:28:06;38.30;;;22.53;;
13067;SDS011;6600;51.362;6.686;2024-03-06T09:30:33;36.30;;;22.27;;
13067;SDS011;6600;51.362;6.686;2024-03-06T09:32:59;34.80;;;20.87;;
13067;SDS011;6600;51.362;6.686;2024-03-06T09:35:24;35.87;;;21.27;;
13067;SDS011;6600;51.362;6.686;2024-03-06T09:37:49;32.37;;;20.70;;
13067;SDS011;6600;51.362;6.686;2024-03-06T09:40:22;36.53;;;21.67;;
13067;SDS011;6600;51.362;6.686;2024-03-06T09:42:49;36.90;;;21.90;;
13067;SDS011;6600;51.362;6.686;2024-03-06T09:45:15;35.57;;;21.87;;
13067;SDS011;6600;51.362;6.686;2024-03-06T09:47:42;37.73;;;22.70;;
13067;SDS011;6600;51.362;6.686;2024-03-06T09:50:08;39.10;;;23.03;;
13067;SDS011;6600;51.362;6.686;2024-03-06T09:52:34;34.93;;;21.83;;
13067;SDS011;6600;51.362;6.686;2024-03-06T09:55:01;35.77;;;22.20;;
13067;SDS011;6600;51.362;6.686;2024-03-06T09:57:27;38.63;;;23.23;;
13067;SDS011;6600;51.362;6.686;2024-03-06T09:59:53;38.33;;;22.37;;
13067;SDS011;6600;51.362;6.686;2024-03-06T10:02:26;42.30;;;23.13;;
13067;SDS011;6600;51.362;6.686;2024-03-06T10:04:56;35.50;;;22.77;;
13067;SDS011;6600;51.362;6.686;2024-03-06T10:07:22;36.13;;;21.73;;
13067;SDS011;6600;51.362;6.686;2024-03-06T10:09:47;37.43;;;21.70;;
13067;SDS011;6600;51.362;6.686;2024-03-06T10:12:12;31.97;;;20.73;;
13067;SDS011;6600;51.362;6.686;2024-03-06T10:14:52;32.67;;;21.60;;
13067;SDS011;6600;51.362;6.686;2024-03-06T10:17:21;35.87;;;21.50;;
13067;SDS011;6600;51.362;6.686;2024-03-06T10:19:51;34.50;;;21.83;;
13067;SDS011;6600;51.362;6.686;2024-03-06T10:22:17;32.97;;;22.23;;
13067;SDS011;6600;51.362;6.686;2024-03-06T10:24:44;34.07;;;20.57;;
13067;SDS011;6600;51.362;6.686;2024-03-06T10:27:13;34.63;;;21.63;;
13067;SDS011;6600;51.362;6.686;2024-03-06T10:29:41;35.03;;;21.17;;
13067;SDS011;6600;51.362;6.686;2024-03-06T10:32:07;34.60;;;22.50;;
13067;SDS011;6600;51.362;6.686;2024-03-06T10:34:33;39.13;;;22.63;;
13067;SDS011;6600;51.362;6.686;2024-03-06T10:36:59;35.07;;;21.87;;
13067;SDS011;6600;51.362;6.686;2024-03-06T10:39:28;34.90;;;21.87;;
13067;SDS011;6600;51.362;6.686;2024-03-06T10:41:56;34.63;;;21.87;;
13067;SDS011;6600;51.362;6.686;2024-03-06T10:44:24;36.77;;;21.63;;
13067;SDS011;6600;51.362;6.686;2024-03-06T10:47:06;40.43;;;22.40;;
13067;SDS011;6600;51.362;6.686;2024-03-06T10:49:34;32.40;;;20.73;;
13067;SDS011;6600;51.362;6.686;2024-03-06T10:52:02;33.40;;;20.70;;
13067;SDS011;6600;51.362;6.686;2024-03-06T10:54:31;35.37;;;21.63;;
13067;SDS011;6600;51.362;6.686;2024-03-06T10:56:59;32.53;;;20.27;;
13067;SDS011;6600;51.362;6.686;2024-03-06T10:59:26;35.77;;;21.57;;
13067;SDS011;6600;51.362;6.686;2024-03-06T11:01:53;35.60;;;21.17;;
13067;SDS011;6600;51.362;6.686;2024-03-06T11:04:19;29.73;;;18.63;;
13067;SDS011;6600;51.362;6.686;2024-03-06T11:06:45;31.43;;;19.43;;
13067;SDS011;6600;51.362;6.686;2024-03-06T11:09:10;33.63;;;19.70;;
13067;SDS011;6600;51.362;6.686;2024-03-06T11:11:49;28.27;;;17.80;;
13067;SDS011;6600;51.362;6.686;2024-03-06T11:14:16;32.57;;;19.07;;
13067;SDS011;6600;51.362;6.686;2024-03-06T11:17:04;33.80;;;18.53;;
13067;SDS011;6600;51.362;6.686;2024-03-06T11:30:55;31.63;;;19.73;;
13067;SDS011;6600;51.362;6.686;2024-03-06T11:33:23;29.80;;;18.60;;
13067;SDS011;6600;51.362;6.686;2024-03-06T11:41:32;27.03;;;16.97;;
13067;SDS011;6600;51.362;6.686;2024-03-06T11:44:15;30.33;;;18.13;;
13067;SDS011;6600;51.362;6.686;2024-03-06T11:46:45;28.27;;;16.63;;
13067;SDS011;6600;51.362;6.686;2024-03-06T11:49:20;29.63;;;17.83;;
13067;SDS011;6600;51.362;6.686;2024-03-06T11:51:49;28.70;;;16.87;;
13067;SDS011;6600;51.362;6.686;2024-03-06T11:54:18;28.97;;;17.97;;
13067;SDS011;6600;51.362;6.686;2024-03-06T11:56:48;27.20;;;16.97;;
13067;SDS011;6600;51.362;6.686;2024-03-06T11:59:20;25.47;;;16.63;;
13067;SDS011;6600;51.362;6.686;2024-03-06T12:01:47;29.47;;;17.57;;
13067;SDS011;6600;51.362;6.686;2024-03-06T12:04:13;27.37;;;15.67;;
13067;SDS011;6600;51.362;6.686;2024-03-06T12:06:38;26.93;;;16.27;;
13067;SDS011;6600;51.362;6.686;2024-03-06T12:09:04;20.77;;;14.90;;
13067;SDS011;6600;51.362;6.686;2024-03-06T12:11:29;27.83;;;16.20;;
13067;SDS011;6600;51.362;6.686;2024-03-06T12:13:56;26.80;;;16.00;;
13067;SDS011;6600;51.362;6.686;2024-03-06T12:16:21;26.70;;;16.47;;
13067;SDS011;6600;51.362;6.686;2024-03-06T12:18:52;27.23;;;17.00;;
13067;SDS011;6600;51.362;6.686;2024-03-06T12:21:19;25.60;;;16.40;;
13067;SDS011;6600;51.362;6.686;2024-03-06T12:23:44;24.00;;;15.77;;
13067;SDS011;6600;51.362;6.686;2024-03-06T12:26:10;28.23;;;15.90;;
13067;SDS011;6600;51.362;6.686;2024-03-06T12:28:39;23.70;;;15.63;;
13067;SDS011;6600;51.362;6.686;2024-03-06T12:31:04;25.13;;;16.47;;
13067;SDS011;6600;51.362;6.686;2024-03-06T12:33:32;31.43;;;18.40;;
13067;SDS011;6600;51.362;6.686;2024-03-06T12:36:04;32.70;;;19.70;;
13067;SDS011;6600;51.362;6.686;2024-03-06T12:38:35;25.00;;;16.47;;
13067;SDS011;6600;51.362;6.686;2024-03-06T12:41:02;23.23;;;13.80;;
13067;SDS011;6600;51.362;6.686;2024-03-06T12:43:27;17.13;;;10.77;;
13067;SDS011;6600;51.362;6.686;2024-03-06T12:45:53;20.90;;;12.30;;
13067;SDS011;6600;51.362;6.686;2024-03-06T12:48:20;22.87;;;12.70;;
13067;SDS011;6600;51.362;6.686;2024-03-06T12:50:46;17.43;;;11.93;;
13067;SDS011;6600;51.362;6.686;2024-03-06T12:53:16;17.23;;;11.67;;
13067;SDS011;6600;51.362;6.686;2024-03-06T12:55:43;17.10;;;12.00;;
13067;SDS011;6600;51.362;6.686;2024-03-06T12:58:10;15.63;;;11.30;;
13067;SDS011;6600;51.362;6.686;2024-03-06T13:00:36;16.60;;;11.27;;
13067;SDS011;6600;51.362;6.686;2024-03-06T13:03:01;14.40;;;10.57;;
13067;SDS011;6600;51.362;6.686;2024-03-06T13:05:27;15.60;;;10.30;;
13067;SDS011;6600;51.362;6.686;2024-03-06T13:07:52;16.83;;;10.80;;
13067;SDS011;6600;51.362;6.686;2024-03-06T13:10:17;15.63;;;10.47;;
13067;SDS011;6600;51.362;6.686;2024-03-06T13:12:43;19.00;;;12.00;;
13067;SDS011;6600;51.362;6.686;2024-03-06T13:15:09;17.47;;;11.30;;
13067;SDS011;6600;51.362;6.686;2024-03-06T13:17:35;17.43;;;11.17;;
13067;SDS011;6600;51.362;6.686;2024-03-06T13:20:00;17.67;;;10.90;;
13067;SDS011;6600;51.362;6.686;2024-03-06T13:22:26;18.30;;;11.30;;
13067;SDS011;6600;51.362;6.686;2024-03-06T13:24:51;16.57;;;10.60;;
13067;SDS011;6600;51.362;6.686;2024-03-06T13:27:17;18.00;;;11.30;;
13067;SDS011;6600;51.362;6.686;2024-03-06T13:29:42;18.40;;;10.67;;
13067;SDS011;6600;51.362;6.686;2024-03-06T13:32:07;16.73;;;10.17;;
13067;SDS011;6600;51.362;6.686;2024-03-06T13:34:34;15.43;;;10.27;;
13067;SDS011;6600;51.362;6.686;2024-03-06T13:36:59;14.63;;;9.80;;
13067;SDS011;6600;51.362;6.686;2024-03-06T13:39:25;16.53;;;11.10;;
13067;SDS011;6600;51.362;6.686;2024-03-06T13:41:50;17.20;;;10.50;;
13067;SDS011;6600;51.362;6.686;2024-03-06T13:44:17;13.97;;;9.63;;
13067;SDS011;6600;51.362;6.686;2024-03-06T13:46:43;14.93;;;9.87;;
13067;SDS011;6600;51.362;6.686;2024-03-06T13:49:11;17.03;;;10.57;;
13067;SDS011;6600;51.362;6.686;2024-03-06T13:52:01;16.23;;;10.87;;
13067;SDS011;6600;51.362;6.686;2024-03-06T13:54:26;17.03;;;11.13;;
13067;SDS011;6600;51.362;6.686;2024-03-06T13:56:52;15.67;;;10.30;;
13067;SDS011;6600;51.362;6.686;2024-03-06T13:59:20;16.60;;;11.43;;
13067;SDS011;6600;51.362;6.686;2024-03-06T14:01:46;17.87;;;11.60;;
13067;SDS011;6600;51.362;6.686;2024-03-06T14:04:11;14.50;;;9.80;;
13067;SDS011;6600;51.362;6.686;2024-03-06T14:06:36;18.70;;;11.47;;
13067;SDS011;6600;51.362;6.686;2024-03-06T14:09:02;16.90;;;10.90;;
13067;SDS011;6600;51.362;6.686;2024-03-06T14:11:27;14.03;;;9.27;;
13067;SDS011;6600;51.362;6.686;2024-03-06T14:13:52;17.50;;;10.67;;
13067;SDS011;6600;51.362;6.686;2024-03-06T14:16:19;14.77;;;10.63;;
13067;SDS011;6600;51.362;6.686;2024-03-06T14:18:44;13.27;;;9.77;;
13067;SDS011;6600;51.362;6.686;2024-03-06T14:21:09;13.70;;;8.90;;
13067;SDS011;6600;51.362;6.686;2024-03-06T14:23:35;16.03;;;11.00;;
13067;SDS011;6600;51.362;6.686;2024-03-06T14:26:00;16.97;;;10.37;;
13067;SDS011;6600;51.362;6.686;2024-03-06T14:28:27;16.27;;;10.13;;
13067;SDS011;6600;51.362;6.686;2024-03-06T14:30:52;16.27;;;9.53;;
13067;SDS011;6600;51.362;6.686;2024-03-06T14:33:17;14.07;;;9.30;;
13067;SDS011;6600;51.362;6.686;2024-03-06T14:35:43;12.57;;;8.97;;
13067;SDS011;6600;51.362;6.686;2024-03-06T14:38:10;15.07;;;9.97;;
13067;SDS011;6600;51.362;6.686;2024-03-06T14:40:37;17.60;;;10.50;;
13067;SDS011;6600;51.362;6.686;2024-03-06T14:43:03;12.87;;;9.27;;
13067;SDS011;6600;51.362;6.686;2024-03-06T14:45:33;15.03;;;10.30;;
13067;SDS011;6600;51.362;6.686;2024-03-06T14:47:59;16.10;;;10.50;;